sensor_id;sensor_type;location;lat;lon;timestamp;temperature;humidity
18339;DHT22;9295;44.484;11.240;2024-01-06T00:01:26;8.40;99.90
18339;DHT22;9295;44.484;11.240;2024-01-06T00:03:56;8.40;99.90
18339;DHT22;9295;44.484;11.240;2024-01-06T00:06:24;8.40;99.90
18339;DHT22;9295;44.484;11.240;2024-01-06T00:08:53;8.40;99.90
18339;DHT22;9295;44.484;11.240;2024-01-06T00:11:22;8.40;99.90
18339;DHT22;9295;44.484;11.240;2024-01-06T00:13:51;8.40;99.90
18339;DHT22;9295;44.484;11.240;2024-01-06T00:16:20;8.30;99.90
18339;DHT22;9295;44.484;11.240;2024-01-06T00:18:51;8.30;99.90
18339;DHT22;9295;44.484;11.240;2024-01-06T00:21:21;8.40;99.90
18339;DHT22;9295;44.484;11.240;2024-01-06T00:23:50;8.40;99.90
18339;DHT22;9295;44.484;11.240;2024-01-06T00:26:18;8.40;99.90
18339;DHT22;9295;44.484;11.240;2024-01-06T00:28:47;8.40;99.90
18339;DHT22;9295;44.484;11.240;2024-01-06T00:31:16;8.30;99.90
18339;DHT22;9295;44.484;11.240;2024-01-06T00:33:45;8.30;99.90
18339;DHT22;9295;44.484;11.240;2024-01-06T00:36:14;8.30;99.90
18339;DHT22;9295;44.484;11.240;2024-01-06T00:38:43;8.30;99.90
18339;DHT22;9295;44.484;11.240;2024-01-06T00:41:13;8.30;99.90
18339;DHT22;9295;44.484;11.240;2024-01-06T00:43:42;8.30;99.90
18339;DHT22;9295;44.484;11.240;2024-01-06T00:46:10;8.30;99.90
18339;DHT22;9295;44.484;11.240;2024-01-06T00:48:39;8.30;99.90
18339;DHT22;9295;44.484;11.240;2024-01-06T00:51:08;8.30;99.90
18339;DHT22;9295;44.484;11.240;2024-01-06T00:53:36;8.30;99.90
18339;DHT22;9295;44.484;11.240;2024-01-06T00:56:06;8.30;99.90
18339;DHT22;9295;44.484;11.240;2024-01-06T00:58:35;8.30;99.90
18339;DHT22;9295;44.484;11.240;2024-01-06T01:01:03;8.30;99.90
18339;DHT22;9295;44.484;11.240;2024-01-06T01:03:32;8.20;99.90
18339;DHT22;9295;44.484;11.240;2024-01-06T01:06:00;8.20;99.90
18339;DHT22;9295;44.484;11.240;2024-01-06T01:08:29;8.20;99.90
18339;DHT22;9295;44.484;11.240;2024-01-06T01:10:59;8.20;99.90
18339;DHT22;9295;44.484;11.240;2024-01-06T01:13:29;8.20;99.90
18339;DHT22;9295;44.484;11.240;2024-01-06T01:15:57;8.20;99.90
18339;DHT22;9295;44.484;11.240;2024-01-06T01:18:26;8.20;99.90
18339;DHT22;9295;44.484;11.240;2024-01-06T01:20:55;8.20;99.90
18339;DHT22;9295;44.484;11.240;2024-01-06T01:23:23;8.20;99.90
18339;DHT22;9295;44.484;11.240;2024-01-06T01:25:52;8.20;99.90
18339;DHT22;9295;44.484;11.240;2024-01-06T01:28:20;8.20;99.90
18339;DHT22;9295;44.484;11.240;2024-01-06T01:30:50;8.20;99.90
18339;DHT22;9295;44.484;11.240;2024-01-06T01:33:19;8.20;99.90
18339;DHT22;9295;44.484;11.240;2024-01-06T01:35:48;8.20;99.90
18339;DHT22;9295;44.484;11.240;2024-01-06T01:38:16;8.20;99.90
18339;DHT22;9295;44.484;11.240;2024-01-06T01:40:45;8.20;99.90
18339;DHT22;9295;44.484;11.240;2024-01-06T01:43:17;8.20;99.90
18339;DHT22;9295;44.484;11.240;2024-01-06T01:45:50;8.20;99.90
18339;DHT22;9295;44.484;11.240;2024-01-06T01:48:20;8.20;99.90
18339;DHT22;9295;44.484;11.240;2024-01-06T01:50:49;8.10;99.90
18339;DHT22;9295;44.484;11.240;2024-01-06T01:53:17;8.20;99.90
18339;DHT22;9295;44.484;11.240;2024-01-06T01:55:47;8.20;99.90
18339;DHT22;9295;44.484;11.240;2024-01-06T01:58:16;8.20;99.90
18339;DHT22;9295;44.484;11.240;2024-01-06T02:00:45;8.20;99.90
18339;DHT22;9295;44.484;11.240;2024-01-06T02:03:16;8.20;99.90
18339;DHT22;9295;44.484;11.240;2024-01-06T02:05:45;8.20;99.90
18339;DHT22;9295;44.484;11.240;2024-01-06T02:08:13;8.20;99.90
18339;DHT22;9295;44.484;11.240;2024-01-06T02:10:41;8.20;99.90
18339;DHT22;9295;44.484;11.240;2024-01-06T02:13:10;8.20;99.90
18339;DHT22;9295;44.484;11.240;2024-01-06T02:15:39;8.20;99.90
18339;DHT22;9295;44.484;11.240;2024-01-06T02:18:08;8.20;99.90
18339;DHT22;9295;44.484;11.240;2024-01-06T02:20:41;8.30;99.90
18339;DHT22;9295;44.484;11.240;2024-01-06T02:23:12;8.30;99.90
18339;DHT22;9295;44.484;11.240;2024-01-06T02:25:41;8.30;99.90
18339;DHT22;9295;44.484;11.240;2024-01-06T02:28:09;8.30;99.90
18339;DHT22;9295;44.484;11.240;2024-01-06T02:30:38;8.30;99.90
18339;DHT22;9295;44.484;11.240;2024-01-06T02:33:07;8.20;99.90
18339;DHT22;9295;44.484;11.240;2024-01-06T02:35:36;8.10;99.90
18339;DHT22;9295;44.484;11.240;2024-01-06T02:38:04;8.20;99.90
18339;DHT22;9295;44.484;11.240;2024-01-06T02:40:34;8.20;99.90
18339;DHT22;9295;44.484;11.240;2024-01-06T02:43:03;8.20;99.90
18339;DHT22;9295;44.484;11.240;2024-01-06T02:45:31;8.20;99.90
18339;DHT22;9295;44.484;11.240;2024-01-06T02:48:00;8.20;99.90
18339;DHT22;9295;44.484;11.240;2024-01-06T02:50:29;8.20;99.90
18339;DHT22;9295;44.484;11.240;2024-01-06T02:52:58;8.20;99.90
18339;DHT22;9295;44.484;11.240;2024-01-06T02:55:26;8.20;99.90
18339;DHT22;9295;44.484;11.240;2024-01-06T02:57:56;8.20;99.90
18339;DHT22;9295;44.484;11.240;2024-01-06T03:00:24;8.20;99.90
18339;DHT22;9295;44.484;11.240;2024-01-06T03:02:53;8.20;99.90
18339;DHT22;9295;44.484;11.240;2024-01-06T03:05:22;8.20;99.90
18339;DHT22;9295;44.484;11.240;2024-01-06T03:07:50;8.20;99.90
18339;DHT22;9295;44.484;11.240;2024-01-06T03:10:19;8.20;99.90
18339;DHT22;9295;44.484;11.240;2024-01-06T03:12:47;8.20;99.90
18339;DHT22;9295;44.484;11.240;2024-01-06T03:15:18;8.20;99.90
18339;DHT22;9295;44.484;11.240;2024-01-06T03:17:46;8.20;99.90
18339;DHT22;9295;44.484;11.240;2024-01-06T03:20:15;8.20;99.90
18339;DHT22;9295;44.484;11.240;2024-01-06T03:22:43;8.20;99.90
18339;DHT22;9295;44.484;11.240;2024-01-06T03:25:12;8.20;99.90
18339;DHT22;9295;44.484;11.240;2024-01-06T03:27:40;8.20;99.90
18339;DHT22;9295;44.484;11.240;2024-01-06T03:30:10;8.20;99.90
18339;DHT22;9295;44.484;11.240;2024-01-06T03:32:40;8.20;99.90
18339;DHT22;9295;44.484;11.240;2024-01-06T03:35:09;8.20;99.90
18339;DHT22;9295;44.484;11.240;2024-01-06T03:37:37;8.10;99.90
18339;DHT22;9295;44.484;11.240;2024-01-06T03:40:07;8.10;99.90
18339;DHT22;9295;44.484;11.240;2024-01-06T03:42:35;8.10;99.90
18339;DHT22;9295;44.484;11.240;2024-01-06T03:45:05;8.10;99.90
18339;DHT22;9295;44.484;11.240;2024-01-06T03:47:34;8.10;99.90
18339;DHT22;9295;44.484;11.240;2024-01-06T03:50:04;8.20;99.90
18339;DHT22;9295;44.484;11.240;2024-01-06T03:52:33;8.10;99.90
18339;DHT22;9295;44.484;11.240;2024-01-06T03:55:02;8.10;99.90
18339;DHT22;9295;44.484;11.240;2024-01-06T03:57:30;8.10;99.90
18339;DHT22;9295;44.484;11.240;2024-01-06T03:59:59;8.10;99.90
18339;DHT22;9295;44.484;11.240;2024-01-06T04:02:30;8.10;99.90
18339;DHT22;9295;44.484;11.240;2024-01-06T04:04:59;8.00;99.90
18339;DHT22;9295;44.484;11.240;2024-01-06T04:07:29;8.00;99.90
18339;DHT22;9295;44.484;11.240;2024-01-06T04:09:57;8.00;99.90
18339;DHT22;9295;44.484;11.240;2024-01-06T04:12:26;8.00;99.90
18339;DHT22;9295;44.484;11.240;2024-01-06T04:14:54;8.00;99.90
18339;DHT22;9295;44.484;11.240;2024-01-06T04:17:23;8.00;99.90
18339;DHT22;9295;44.484;11.240;2024-01-06T04:19:53;7.90;99.90
18339;DHT22;9295;44.484;11.240;2024-01-06T04:22:22;7.90;99.90
18339;DHT22;9295;44.484;11.240;2024-01-06T04:24:52;7.90;99.90
18339;DHT22;9295;44.484;11.240;2024-01-06T04:27:20;7.90;99.90
18339;DHT22;9295;44.484;11.240;2024-01-06T04:29:49;7.80;99.90
18339;DHT22;9295;44.484;11.240;2024-01-06T04:32:20;7.90;99.90
18339;DHT22;9295;44.484;11.240;2024-01-06T04:34:49;7.80;99.90
18339;DHT22;9295;44.484;11.240;2024-01-06T04:37:17;7.80;99.90
18339;DHT22;9295;44.484;11.240;2024-01-06T04:39:46;7.80;99.90
18339;DHT22;9295;44.484;11.240;2024-01-06T04:42:16;7.80;99.90
18339;DHT22;9295;44.484;11.240;2024-01-06T04:44:44;7.80;99.90
18339;DHT22;9295;44.484;11.240;2024-01-06T04:47:13;7.80;99.90
18339;DHT22;9295;44.484;11.240;2024-01-06T04:49:41;7.80;99.90
18339;DHT22;9295;44.484;11.240;2024-01-06T04:52:10;7.80;99.90
18339;DHT22;9295;44.484;11.240;2024-01-06T04:54:38;7.80;99.90
18339;DHT22;9295;44.484;11.240;2024-01-06T04:57:07;7.80;99.90
18339;DHT22;9295;44.484;11.240;2024-01-06T04:59:37;7.80;99.90
18339;DHT22;9295;44.484;11.240;2024-01-06T05:02:05;7.80;99.90
18339;DHT22;9295;44.484;11.240;2024-01-06T05:04:34;7.80;99.90
18339;DHT22;9295;44.484;11.240;2024-01-06T05:07:03;7.80;99.90
18339;DHT22;9295;44.484;11.240;2024-01-06T05:09:31;7.80;99.90
18339;DHT22;9295;44.484;11.240;2024-01-06T05:12:00;7.80;99.90
18339;DHT22;9295;44.484;11.240;2024-01-06T05:14:29;7.80;99.90
18339;DHT22;9295;44.484;11.240;2024-01-06T05:16:58;7.80;99.90
18339;DHT22;9295;44.484;11.240;2024-01-06T05:19:27;7.80;99.90
18339;DHT22;9295;44.484;11.240;2024-01-06T05:21:56;7.80;99.90
18339;DHT22;9295;44.484;11.240;2024-01-06T05:24:25;7.80;99.90
18339;DHT22;9295;44.484;11.240;2024-01-06T05:26:53;7.80;99.90
18339;DHT22;9295;44.484;11.240;2024-01-06T05:29:22;7.90;99.90
18339;DHT22;9295;44.484;11.240;2024-01-06T05:31:52;7.90;99.90
18339;DHT22;9295;44.484;11.240;2024-01-06T05:34:22;7.90;99.90
18339;DHT22;9295;44.484;11.240;2024-01-06T05:36:50;7.90;99.90
18339;DHT22;9295;44.484;11.240;2024-01-06T05:39:20;7.80;99.90
18339;DHT22;9295;44.484;11.240;2024-01-06T05:41:48;7.80;99.90
18339;DHT22;9295;44.484;11.240;2024-01-06T05:44:17;7.80;99.90
18339;DHT22;9295;44.484;11.240;2024-01-06T05:46:46;7.90;99.90
18339;DHT22;9295;44.484;11.240;2024-01-06T05:49:14;7.80;99.90
18339;DHT22;9295;44.484;11.240;2024-01-06T05:51:46;7.80;99.90
18339;DHT22;9295;44.484;11.240;2024-01-06T05:54:14;7.80;99.90
18339;DHT22;9295;44.484;11.240;2024-01-06T05:56:43;7.80;99.90
18339;DHT22;9295;44.484;11.240;2024-01-06T05:59:11;7.80;99.90
18339;DHT22;9295;44.484;11.240;2024-01-06T06:01:40;7.80;99.90
18339;DHT22;9295;44.484;11.240;2024-01-06T06:04:08;7.80;99.90
18339;DHT22;9295;44.484;11.240;2024-01-06T06:06:37;7.80;99.90
18339;DHT22;9295;44.484;11.240;2024-01-06T06:09:07;7.80;99.90
18339;DHT22;9295;44.484;11.240;2024-01-06T06:11:37;7.80;99.90
18339;DHT22;9295;44.484;11.240;2024-01-06T06:14:06;7.80;99.90
18339;DHT22;9295;44.484;11.240;2024-01-06T06:16:34;7.80;99.90
18339;DHT22;9295;44.484;11.240;2024-01-06T06:19:03;7.80;99.90
18339;DHT22;9295;44.484;11.240;2024-01-06T06:21:31;7.80;99.90
18339;DHT22;9295;44.484;11.240;2024-01-06T06:24:01;7.80;99.90
18339;DHT22;9295;44.484;11.240;2024-01-06T06:26:31;7.80;99.90
18339;DHT22;9295;44.484;11.240;2024-01-06T06:29:00;7.80;99.90
18339;DHT22;9295;44.484;11.240;2024-01-06T06:31:28;7.90;99.90
18339;DHT22;9295;44.484;11.240;2024-01-06T06:33:57;7.90;99.90
18339;DHT22;9295;44.484;11.240;2024-01-06T06:36:26;7.90;99.90
18339;DHT22;9295;44.484;11.240;2024-01-06T06:38:54;8.00;99.90
18339;DHT22;9295;44.484;11.240;2024-01-06T06:41:25;7.90;99.90
18339;DHT22;9295;44.484;11.240;2024-01-06T06:43:55;7.90;99.90
18339;DHT22;9295;44.484;11.240;2024-01-06T06:46:23;7.90;99.90
18339;DHT22;9295;44.484;11.240;2024-01-06T06:48:52;7.90;99.90
18339;DHT22;9295;44.484;11.240;2024-01-06T06:51:20;7.90;99.90
18339;DHT22;9295;44.484;11.240;2024-01-06T06:53:52;8.00;99.90
18339;DHT22;9295;44.484;11.240;2024-01-06T06:56:20;8.00;99.90
18339;DHT22;9295;44.484;11.240;2024-01-06T06:58:49;8.00;99.90
18339;DHT22;9295;44.484;11.240;2024-01-06T07:01:19;8.00;99.90
18339;DHT22;9295;44.484;11.240;2024-01-06T07:03:47;8.00;99.90
18339;DHT22;9295;44.484;11.240;2024-01-06T07:06:16;8.00;99.90
18339;DHT22;9295;44.484;11.240;2024-01-06T07:08:45;8.00;99.90
18339;DHT22;9295;44.484;11.240;2024-01-06T07:11:13;8.00;99.90
18339;DHT22;9295;44.484;11.240;2024-01-06T07:13:45;8.00;99.90
18339;DHT22;9295;44.484;11.240;2024-01-06T07:16:14;8.10;99.90
18339;DHT22;9295;44.484;11.240;2024-01-06T07:18:47;8.00;99.90
18339;DHT22;9295;44.484;11.240;2024-01-06T07:21:16;8.00;99.90
18339;DHT22;9295;44.484;11.240;2024-01-06T07:23:44;8.10;99.90
18339;DHT22;9295;44.484;11.240;2024-01-06T07:26:13;8.00;99.90
18339;DHT22;9295;44.484;11.240;2024-01-06T07:28:42;8.00;99.90
18339;DHT22;9295;44.484;11.240;2024-01-06T07:31:10;8.00;99.90
18339;DHT22;9295;44.484;11.240;2024-01-06T07:33:39;8.10;99.90
18339;DHT22;9295;44.484;11.240;2024-01-06T07:36:09;8.10;99.90
18339;DHT22;9295;44.484;11.240;2024-01-06T07:38:38;8.10;99.90
18339;DHT22;9295;44.484;11.240;2024-01-06T07:41:06;8.10;99.90
18339;DHT22;9295;44.484;11.240;2024-01-06T07:43:35;8.10;99.90
18339;DHT22;9295;44.484;11.240;2024-01-06T07:46:04;8.10;99.90
18339;DHT22;9295;44.484;11.240;2024-01-06T07:48:34;8.10;99.90
18339;DHT22;9295;44.484;11.240;2024-01-06T07:51:03;8.10;99.90
18339;DHT22;9295;44.484;11.240;2024-01-06T07:53:33;8.10;99.90
18339;DHT22;9295;44.484;11.240;2024-01-06T07:56:02;8.10;99.90
18339;DHT22;9295;44.484;11.240;2024-01-06T07:58:30;8.10;99.90
18339;DHT22;9295;44.484;11.240;2024-01-06T08:01:00;8.10;99.90
18339;DHT22;9295;44.484;11.240;2024-01-06T08:03:29;8.20;99.90
18339;DHT22;9295;44.484;11.240;2024-01-06T08:05:58;8.20;99.90
18339;DHT22;9295;44.484;11.240;2024-01-06T08:08:26;8.20;99.90
18339;DHT22;9295;44.484;11.240;2024-01-06T08:10:56;8.20;99.90
18339;DHT22;9295;44.484;11.240;2024-01-06T08:13:25;8.20;99.90
18339;DHT22;9295;44.484;11.240;2024-01-06T08:15:53;8.30;99.90
18339;DHT22;9295;44.484;11.240;2024-01-06T08:18:22;8.30;99.90
18339;DHT22;9295;44.484;11.240;2024-01-06T08:20:51;8.30;99.90
18339;DHT22;9295;44.484;11.240;2024-01-06T08:23:20;8.30;99.90
18339;DHT22;9295;44.484;11.240;2024-01-06T08:25:48;8.30;99.90
18339;DHT22;9295;44.484;11.240;2024-01-06T08:28:18;8.30;99.90
18339;DHT22;9295;44.484;11.240;2024-01-06T08:30:48;8.30;99.90
18339;DHT22;9295;44.484;11.240;2024-01-06T08:33:17;8.30;99.90
18339;DHT22;9295;44.484;11.240;2024-01-06T08:35:46;8.40;99.90
18339;DHT22;9295;44.484;11.240;2024-01-06T08:38:15;8.30;99.90
18339;DHT22;9295;44.484;11.240;2024-01-06T08:40:44;8.30;99.90
18339;DHT22;9295;44.484;11.240;2024-01-06T08:43:15;8.30;99.90
18339;DHT22;9295;44.484;11.240;2024-01-06T08:45:45;8.30;99.90
18339;DHT22;9295;44.484;11.240;2024-01-06T08:48:13;8.30;99.90
18339;DHT22;9295;44.484;11.240;2024-01-06T08:50:43;8.40;99.90
18339;DHT22;9295;44.484;11.240;2024-01-06T08:53:12;8.40;99.90
18339;DHT22;9295;44.484;11.240;2024-01-06T08:55:41;8.40;99.90
18339;DHT22;9295;44.484;11.240;2024-01-06T08:58:13;8.40;99.90
18339;DHT22;9295;44.484;11.240;2024-01-06T09:00:41;8.40;99.90
18339;DHT22;9295;44.484;11.240;2024-01-06T09:03:11;8.40;99.90
18339;DHT22;9295;44.484;11.240;2024-01-06T09:05:40;8.40;99.90
18339;DHT22;9295;44.484;11.240;2024-01-06T09:08:09;8.50;99.90
18339;DHT22;9295;44.484;11.240;2024-01-06T09:10:38;8.50;99.90
18339;DHT22;9295;44.484;11.240;2024-01-06T09:13:06;8.50;99.90
18339;DHT22;9295;44.484;11.240;2024-01-06T09:15:35;8.50;99.90
18339;DHT22;9295;44.484;11.240;2024-01-06T09:18:04;8.50;99.90
18339;DHT22;9295;44.484;11.240;2024-01-06T09:20:34;8.50;99.90
18339;DHT22;9295;44.484;11.240;2024-01-06T09:23:03;8.50;99.90
18339;DHT22;9295;44.484;11.240;2024-01-06T09:25:31;8.40;99.90
18339;DHT22;9295;44.484;11.240;2024-01-06T09:28:00;8.40;99.90
18339;DHT22;9295;44.484;11.240;2024-01-06T09:30:28;8.40;99.90
18339;DHT22;9295;44.484;11.240;2024-01-06T09:32:57;8.40;99.90
18339;DHT22;9295;44.484;11.240;2024-01-06T09:35:26;8.50;99.90
18339;DHT22;9295;44.484;11.240;2024-01-06T09:37:56;8.50;99.90
18339;DHT22;9295;44.484;11.240;2024-01-06T09:40:25;8.50;99.90
18339;DHT22;9295;44.484;11.240;2024-01-06T09:42:54;8.50;99.90
18339;DHT22;9295;44.484;11.240;2024-01-06T09:45:22;8.50;99.90
18339;DHT22;9295;44.484;11.240;2024-01-06T09:47:51;8.50;99.90
18339;DHT22;9295;44.484;11.240;2024-01-06T09:50:21;8.50;99.90
18339;DHT22;9295;44.484;11.240;2024-01-06T09:52:49;8.50;99.90
18339;DHT22;9295;44.484;11.240;2024-01-06T09:55:24;8.50;99.90
18339;DHT22;9295;44.484;11.240;2024-01-06T09:57:54;8.50;99.90
18339;DHT22;9295;44.484;11.240;2024-01-06T10:00:23;8.50;99.90
18339;DHT22;9295;44.484;11.240;2024-01-06T10:02:51;8.60;99.90
18339;DHT22;9295;44.484;11.240;2024-01-06T10:05:20;8.60;99.90
18339;DHT22;9295;44.484;11.240;2024-01-06T10:07:49;8.60;99.90
18339;DHT22;9295;44.484;11.240;2024-01-06T10:10:17;8.60;99.90
18339;DHT22;9295;44.484;11.240;2024-01-06T10:12:48;8.60;99.90
18339;DHT22;9295;44.484;11.240;2024-01-06T10:15:21;8.70;99.90
18339;DHT22;9295;44.484;11.240;2024-01-06T10:17:50;8.70;99.90
18339;DHT22;9295;44.484;11.240;2024-01-06T10:20:19;8.70;99.90
18339;DHT22;9295;44.484;11.240;2024-01-06T10:22:49;8.80;99.90
18339;DHT22;9295;44.484;11.240;2024-01-06T10:25:23;8.80;99.90
18339;DHT22;9295;44.484;11.240;2024-01-06T10:27:53;8.80;99.90
18339;DHT22;9295;44.484;11.240;2024-01-06T10:30:23;8.80;99.90
18339;DHT22;9295;44.484;11.240;2024-01-06T10:32:53;8.80;99.90
18339;DHT22;9295;44.484;11.240;2024-01-06T10:35:24;8.80;99.90
18339;DHT22;9295;44.484;11.240;2024-01-06T10:37:54;8.80;99.90
18339;DHT22;9295;44.484;11.240;2024-01-06T10:40:22;8.80;99.90
18339;DHT22;9295;44.484;11.240;2024-01-06T10:42:53;8.80;99.90
18339;DHT22;9295;44.484;11.240;2024-01-06T10:45:25;8.80;99.90
18339;DHT22;9295;44.484;11.240;2024-01-06T10:47:55;8.80;99.90
18339;DHT22;9295;44.484;11.240;2024-01-06T10:50:23;8.80;99.90
18339;DHT22;9295;44.484;11.240;2024-01-06T10:52:53;8.80;99.90
18339;DHT22;9295;44.484;11.240;2024-01-06T10:55:23;8.90;99.90
18339;DHT22;9295;44.484;11.240;2024-01-06T10:57:54;8.80;99.90
18339;DHT22;9295;44.484;11.240;2024-01-06T11:00:24;8.80;99.90
18339;DHT22;9295;44.484;11.240;2024-01-06T11:02:54;8.80;99.90
18339;DHT22;9295;44.484;11.240;2024-01-06T11:05:23;8.80;99.90
18339;DHT22;9295;44.484;11.240;2024-01-06T11:07:52;8.80;99.90
18339;DHT22;9295;44.484;11.240;2024-01-06T11:10:27;8.70;99.90
18339;DHT22;9295;44.484;11.240;2024-01-06T11:13:11;8.70;99.90
18339;DHT22;9295;44.484;11.240;2024-01-06T11:15:43;8.70;99.90
18339;DHT22;9295;44.484;11.240;2024-01-06T11:18:31;8.80;99.90
18339;DHT22;9295;44.484;11.240;2024-01-06T11:21:25;8.80;99.90
18339;DHT22;9295;44.484;11.240;2024-01-06T11:24:15;8.80;99.90
18339;DHT22;9295;44.484;11.240;2024-01-06T11:26:44;8.70;99.90
18339;DHT22;9295;44.484;11.240;2024-01-06T11:29:14;8.70;99.90
18339;DHT22;9295;44.484;11.240;2024-01-06T11:31:43;8.70;99.90
18339;DHT22;9295;44.484;11.240;2024-01-06T11:34:14;8.70;99.90
18339;DHT22;9295;44.484;11.240;2024-01-06T11:36:44;8.70;99.90
18339;DHT22;9295;44.484;11.240;2024-01-06T11:39:34;8.70;99.90
18339;DHT22;9295;44.484;11.240;2024-01-06T11:42:03;8.70;99.90
18339;DHT22;9295;44.484;11.240;2024-01-06T11:44:37;8.70;99.90
18339;DHT22;9295;44.484;11.240;2024-01-06T11:47:06;8.70;99.90
18339;DHT22;9295;44.484;11.240;2024-01-06T11:49:35;8.80;99.90
18339;DHT22;9295;44.484;11.240;2024-01-06T11:52:04;8.80;99.90
18339;DHT22;9295;44.484;11.240;2024-01-06T11:54:35;8.80;99.90
18339;DHT22;9295;44.484;11.240;2024-01-06T11:57:04;8.70;99.90
18339;DHT22;9295;44.484;11.240;2024-01-06T11:59:32;8.80;99.90
18339;DHT22;9295;44.484;11.240;2024-01-06T12:02:03;8.80;99.90
18339;DHT22;9295;44.484;11.240;2024-01-06T12:04:31;8.70;99.90
18339;DHT22;9295;44.484;11.240;2024-01-06T12:07:06;8.70;99.90
18339;DHT22;9295;44.484;11.240;2024-01-06T12:09:35;8.70;99.90
18339;DHT22;9295;44.484;11.240;2024-01-06T12:12:05;8.70;99.90
18339;DHT22;9295;44.484;11.240;2024-01-06T12:14:33;8.70;99.90
18339;DHT22;9295;44.484;11.240;2024-01-06T12:17:04;8.80;99.90
18339;DHT22;9295;44.484;11.240;2024-01-06T12:19:33;8.80;99.90
18339;DHT22;9295;44.484;11.240;2024-01-06T12:22:06;8.80;99.90
18339;DHT22;9295;44.484;11.240;2024-01-06T12:24:36;8.80;99.90
18339;DHT22;9295;44.484;11.240;2024-01-06T12:27:07;8.80;99.90
18339;DHT22;9295;44.484;11.240;2024-01-06T12:29:38;8.70;99.90
18339;DHT22;9295;44.484;11.240;2024-01-06T12:32:09;8.70;99.90
18339;DHT22;9295;44.484;11.240;2024-01-06T12:34:40;8.70;99.90
18339;DHT22;9295;44.484;11.240;2024-01-06T12:37:09;8.70;99.90
18339;DHT22;9295;44.484;11.240;2024-01-06T12:39:38;8.70;99.90
18339;DHT22;9295;44.484;11.240;2024-01-06T12:42:06;8.70;99.90
18339;DHT22;9295;44.484;11.240;2024-01-06T12:44:36;8.70;99.90
18339;DHT22;9295;44.484;11.240;2024-01-06T12:47:07;8.70;99.90
18339;DHT22;9295;44.484;11.240;2024-01-06T12:49:36;8.70;99.90
18339;DHT22;9295;44.484;11.240;2024-01-06T12:52:05;8.70;99.90
18339;DHT22;9295;44.484;11.240;2024-01-06T12:54:34;8.70;99.90
18339;DHT22;9295;44.484;11.240;2024-01-06T12:57:03;8.70;99.90
18339;DHT22;9295;44.484;11.240;2024-01-06T12:59:31;8.70;99.90
18339;DHT22;9295;44.484;11.240;2024-01-06T13:02:00;8.70;99.90
18339;DHT22;9295;44.484;11.240;2024-01-06T13:04:30;8.70;99.90
18339;DHT22;9295;44.484;11.240;2024-01-06T13:06:59;8.70;99.90
18339;DHT22;9295;44.484;11.240;2024-01-06T13:09:29;8.70;99.90
18339;DHT22;9295;44.484;11.240;2024-01-06T13:11:59;8.70;99.90
18339;DHT22;9295;44.484;11.240;2024-01-06T13:14:28;8.70;99.90
18339;DHT22;9295;44.484;11.240;2024-01-06T13:16:57;8.70;99.90
18339;DHT22;9295;44.484;11.240;2024-01-06T13:19:26;8.70;99.90
18339;DHT22;9295;44.484;11.240;2024-01-06T13:21:57;8.70;99.90
18339;DHT22;9295;44.484;11.240;2024-01-06T13:24:25;8.60;99.90
18339;DHT22;9295;44.484;11.240;2024-01-06T13:26:54;8.60;99.90
18339;DHT22;9295;44.484;11.240;2024-01-06T13:29:22;8.60;99.90
18339;DHT22;9295;44.484;11.240;2024-01-06T13:31:51;8.60;99.90
18339;DHT22;9295;44.484;11.240;2024-01-06T13:34:20;8.60;99.90
18339;DHT22;9295;44.484;11.240;2024-01-06T13:36:49;8.60;99.90
18339;DHT22;9295;44.484;11.240;2024-01-06T13:39:21;8.60;99.90
18339;DHT22;9295;44.484;11.240;2024-01-06T13:41:49;8.60;99.90
18339;DHT22;9295;44.484;11.240;2024-01-06T13:44:18;8.60;99.90
18339;DHT22;9295;44.484;11.240;2024-01-06T13:46:47;8.60;99.90
18339;DHT22;9295;44.484;11.240;2024-01-06T13:49:18;8.60;99.90
18339;DHT22;9295;44.484;11.240;2024-01-06T13:51:47;8.70;99.90
18339;DHT22;9295;44.484;11.240;2024-01-06T13:54:16;8.60;99.90
18339;DHT22;9295;44.484;11.240;2024-01-06T13:56:48;8.60;99.90
18339;DHT22;9295;44.484;11.240;2024-01-06T13:59:16;8.70;99.90
18339;DHT22;9295;44.484;11.240;2024-01-06T14:01:45;8.70;99.90
18339;DHT22;9295;44.484;11.240;2024-01-06T14:04:13;8.70;99.90
18339;DHT22;9295;44.484;11.240;2024-01-06T14:06:43;8.70;99.90
18339;DHT22;9295;44.484;11.240;2024-01-06T14:09:11;8.70;99.90
18339;DHT22;9295;44.484;11.240;2024-01-06T14:11:40;8.70;99.90
18339;DHT22;9295;44.484;11.240;2024-01-06T14:14:10;8.80;99.90
18339;DHT22;9295;44.484;11.240;2024-01-06T14:16:38;8.70;99.90
18339;DHT22;9295;44.484;11.240;2024-01-06T14:19:07;8.80;99.90
18339;DHT22;9295;44.484;11.240;2024-01-06T14:21:35;8.80;99.90
18339;DHT22;9295;44.484;11.240;2024-01-06T14:24:04;8.80;99.90
18339;DHT22;9295;44.484;11.240;2024-01-06T14:26:34;8.80;99.90
18339;DHT22;9295;44.484;11.240;2024-01-06T14:29:03;8.80;99.90
18339;DHT22;9295;44.484;11.240;2024-01-06T14:31:33;8.80;99.90
18339;DHT22;9295;44.484;11.240;2024-01-06T14:34:02;8.80;99.90
18339;DHT22;9295;44.484;11.240;2024-01-06T14:36:31;8.90;99.90
18339;DHT22;9295;44.484;11.240;2024-01-06T14:38:59;8.90;99.90
18339;DHT22;9295;44.484;11.240;2024-01-06T14:41:31;8.90;99.90
18339;DHT22;9295;44.484;11.240;2024-01-06T14:43:59;8.90;99.90
18339;DHT22;9295;44.484;11.240;2024-01-06T14:46:28;8.90;99.90
18339;DHT22;9295;44.484;11.240;2024-01-06T14:48:59;8.90;99.90
18339;DHT22;9295;44.484;11.240;2024-01-06T14:51:28;8.90;99.90
18339;DHT22;9295;44.484;11.240;2024-01-06T14:53:57;8.90;99.90
18339;DHT22;9295;44.484;11.240;2024-01-06T14:56:25;8.90;99.90
18339;DHT22;9295;44.484;11.240;2024-01-06T14:58:54;8.80;99.90
18339;DHT22;9295;44.484;11.240;2024-01-06T15:01:23;8.80;99.90
18339;DHT22;9295;44.484;11.240;2024-01-06T15:03:52;8.80;99.90
18339;DHT22;9295;44.484;11.240;2024-01-06T15:06:22;8.70;99.90
18339;DHT22;9295;44.484;11.240;2024-01-06T15:08:50;8.70;99.90
18339;DHT22;9295;44.484;11.240;2024-01-06T15:11:20;8.70;99.90
18339;DHT22;9295;44.484;11.240;2024-01-06T15:13:48;8.70;99.90
18339;DHT22;9295;44.484;11.240;2024-01-06T15:16:17;8.70;99.90
18339;DHT22;9295;44.484;11.240;2024-01-06T15:18:45;8.70;99.90
18339;DHT22;9295;44.484;11.240;2024-01-06T15:21:14;8.70;99.90
18339;DHT22;9295;44.484;11.240;2024-01-06T15:23:48;8.70;99.90
18339;DHT22;9295;44.484;11.240;2024-01-06T15:26:21;8.70;99.90
18339;DHT22;9295;44.484;11.240;2024-01-06T15:28:50;8.70;99.90
18339;DHT22;9295;44.484;11.240;2024-01-06T15:31:19;8.70;99.90
18339;DHT22;9295;44.484;11.240;2024-01-06T15:33:48;8.70;99.90
18339;DHT22;9295;44.484;11.240;2024-01-06T15:36:16;8.60;99.90
18339;DHT22;9295;44.484;11.240;2024-01-06T15:38:45;8.60;99.90
18339;DHT22;9295;44.484;11.240;2024-01-06T15:41:15;8.60;99.90
18339;DHT22;9295;44.484;11.240;2024-01-06T15:43:43;8.60;99.90
18339;DHT22;9295;44.484;11.240;2024-01-06T15:46:12;8.60;99.90
18339;DHT22;9295;44.484;11.240;2024-01-06T15:48:42;8.50;99.90
18339;DHT22;9295;44.484;11.240;2024-01-06T15:51:11;8.60;99.90
18339;DHT22;9295;44.484;11.240;2024-01-06T15:53:40;8.50;99.90
18339;DHT22;9295;44.484;11.240;2024-01-06T15:56:08;8.60;99.90
18339;DHT22;9295;44.484;11.240;2024-01-06T15:58:38;8.60;99.90